Time;durP1;ratioP1;P1;durP2;ratioP2;P2;SDS_P1;SDS_P2;PMS_P1;PMS_P2;Temp;Humidity;BMP_temperature;BMP_pressure;BME280_temperature;BME280_humidity;BME280_pressure;Samples;Min_cycle;Max_cycle;Signal;HPM_P1;HPM_P2
2023/08/15 00:02:26;;;;;;;14.80;11.70;;;24.20;99.90;;;;;;5081258;28;20223;-71
2023/08/15 00:05:15;;;;;;;13.82;12.35;;;24.10;99.90;;;;;;5096939;27;20233;-71
2023/08/15 00:08:24;;;;;;;14.13;12.57;;;24.10;99.90;;;;;;5064141;28;20296;-70
2023/08/15 00:11:12;;;;;;;14.23;12.82;;;24.00;99.90;;;;;;5072308;28;20669;-71
2023/08/15 00:14:01;;;;;;;14.80;12.82;;;24.00;99.90;;;;;;5075198;28;20239;-71
2023/08/15 00:16:50;;;;;;;17.15;12.75;;;24.00;99.90;;;;;;5073598;28;20238;-72
2023/08/15 00:19:40;;;;;;;18.52;13.40;;;24.10;99.90;;;;;;5068177;28;20232;-71
2023/08/15 00:22:28;;;;;;;15.02;13.38;;;24.00;99.90;;;;;;5068907;28;20224;-71
2023/08/15 00:25:19;;;;;;;15.02;13.50;;;24.00;99.90;;;;;;5074315;28;20314;-71
2023/08/15 00:28:08;;;;;;;18.55;13.80;;;23.90;99.90;;;;;;5063736;28;20229;-71
2023/08/15 00:30:57;;;;;;;17.60;13.63;;;23.90;99.90;;;;;;5062055;28;20234;-71
2023/08/15 00:33:46;;;;;;;18.88;13.07;;;23.80;99.90;;;;;;5056326;28;20340;-72
2023/08/15 00:36:35;;;;;;;16.05;13.07;;;23.80;99.90;;;;;;5079537;28;20213;-71
2023/08/15 00:39:24;;;;;;;15.40;13.10;;;23.80;99.90;;;;;;5063668;28;26447;-71
2023/08/15 00:42:15;;;;;;;15.02;13.52;;;23.80;99.90;;;;;;5067918;28;20319;-71
2023/08/15 00:45:04;;;;;;;17.90;13.07;;;23.80;99.90;;;;;;5088409;28;20227;-70
2023/08/15 00:47:53;;;;;;;18.25;13.43;;;23.80;99.90;;;;;;5077097;28;20239;-71
2023/08/15 00:50:43;;;;;;;13.93;12.32;;;23.70;99.90;;;;;;5065272;28;20230;-71
2023/08/15 00:53:34;;;;;;;14.88;12.18;;;23.70;99.90;;;;;;5061214;28;20231;-71
2023/08/15 00:56:24;;;;;;;13.90;12.50;;;23.70;99.90;;;;;;5072383;28;20224;-71
2023/08/15 00:59:15;;;;;;;14.25;12.18;;;23.70;99.90;;;;;;5063611;28;20223;-70
2023/08/15 01:02:05;;;;;;;13.00;11.50;;;23.60;99.90;;;;;;5094653;28;20655;-71
2023/08/15 01:04:54;;;;;;;13.20;11.68;;;23.60;99.90;;;;;;5067170;28;20424;-71
2023/08/15 01:07:44;;;;;;;16.05;11.68;;;23.60;99.90;;;;;;5068120;28;20214;-71
2023/08/15 01:10:32;;;;;;;14.32;11.80;;;23.60;99.90;;;;;;5063085;28;20234;-71
2023/08/15 01:13:28;;;;;;;17.45;11.98;;;23.60;99.90;;;;;;5076097;28;20713;-72
2023/08/15 01:16:24;;;;;;;14.95;12.20;;;23.60;99.90;;;;;;5080931;28;20294;-71
2023/08/15 01:19:26;;;;;;;14.02;11.65;;;23.60;99.90;;;;;;5066736;28;20220;-72
2023/08/15 01:22:17;;;;;;;12.02;10.82;;;23.60;99.90;;;;;;5065776;28;20214;-71
2023/08/15 01:25:08;;;;;;;14.13;11.75;;;23.50;99.90;;;;;;5068918;28;20244;-72
2023/08/15 01:27:57;;;;;;;17.20;12.23;;;23.50;99.90;;;;;;5071728;28;20223;-72
2023/08/15 01:30:55;;;;;;;14.23;11.52;;;23.50;99.90;;;;;;5085373;28;20219;-71
2023/08/15 01:33:56;;;;;;;15.82;11.32;;;23.40;99.90;;;;;;5089991;28;20231;-72
2023/08/15 01:36:49;;;;;;;14.05;11.07;;;23.40;99.90;;;;;;5071806;28;20223;-72
2023/08/15 01:39:41;;;;;;;13.35;11.00;;;23.40;99.90;;;;;;5100317;28;20285;-71
2023/08/15 01:42:33;;;;;;;12.82;11.00;;;23.50;99.90;;;;;;5112130;28;20266;-71
2023/08/15 01:45:24;;;;;;;17.63;11.35;;;23.40;99.90;;;;;;5066969;28;20215;-72
2023/08/15 01:48:16;;;;;;;14.18;11.05;;;23.40;99.90;;;;;;5085993;28;20335;-72
2023/08/15 01:51:05;;;;;;;14.15;11.48;;;23.30;99.90;;;;;;5089585;28;20309;-72
2023/08/15 01:53:54;;;;;;;14.10;11.52;;;23.30;99.90;;;;;;5076395;28;20251;-71
2023/08/15 01:56:45;;;;;;;20.77;12.43;;;23.30;99.90;;;;;;5081402;28;20243;-71
2023/08/15 01:59:35;;;;;;;13.48;12.13;;;23.30;99.90;;;;;;5068115;28;20223;-71
2023/08/15 02:02:24;;;;;;;15.90;12.93;;;23.20;99.90;;;;;;5073856;28;20219;-71
2023/08/15 02:05:13;;;;;;;18.88;13.55;;;23.10;99.90;;;;;;5069900;28;20427;-72
2023/08/15 02:08:03;;;;;;;15.65;13.50;;;23.00;99.90;;;;;;5070132;28;20222;-72
2023/08/15 02:10:52;;;;;;;14.98;13.45;;;23.00;99.90;;;;;;5071656;28;20220;-72
2023/08/15 02:13:42;;;;;;;16.42;13.70;;;23.00;99.90;;;;;;5062667;28;20262;-73
2023/08/15 02:16:32;;;;;;;17.48;13.45;;;23.00;99.90;;;;;;5101258;27;20258;-72
2023/08/15 02:19:21;;;;;;;13.93;12.63;;;22.90;99.90;;;;;;5072676;28;20302;-72
2023/08/15 02:22:11;;;;;;;15.85;13.07;;;22.90;99.90;;;;;;5080131;28;20215;-71
2023/08/15 02:25:00;;;;;;;15.32;13.07;;;22.80;99.90;;;;;;5076655;28;20219;-71
2023/08/15 02:27:49;;;;;;;15.80;12.60;;;22.80;99.90;;;;;;5086426;28;20223;-71
2023/08/15 02:30:38;;;;;;;16.20;13.13;;;22.80;99.90;;;;;;5076461;28;20228;-73
2023/08/15 02:33:28;;;;;;;18.48;13.35;;;22.90;99.90;;;;;;5074335;28;20215;-72
2023/08/15 02:36:17;;;;;;;14.35;12.63;;;22.90;99.90;;;;;;5076513;28;20296;-71
2023/08/15 02:39:06;;;;;;;14.75;13.20;;;22.70;99.90;;;;;;5079775;28;20219;-71
2023/08/15 02:41:55;;;;;;;16.42;13.25;;;22.70;99.90;;;;;;5075461;28;20231;-70
2023/08/15 02:44:44;;;;;;;15.48;13.13;;;22.60;99.90;;;;;;5069864;28;20228;-71
2023/08/15 02:47:33;;;;;;;16.83;13.05;;;22.60;99.90;;;;;;5091746;28;20696;-70
2023/08/15 02:50:23;;;;;;;16.33;13.43;;;22.60;99.90;;;;;;5068365;28;20239;-71
2023/08/15 02:53:12;;;;;;;15.05;12.45;;;22.70;99.90;;;;;;5076964;28;20227;-72
2023/08/15 02:56:01;;;;;;;14.45;12.90;;;22.70;99.90;;;;;;5071692;28;20599;-71
2023/08/15 02:58:52;;;;;;;15.27;13.63;;;22.70;99.90;;;;;;5077532;28;20253;-71
2023/08/15 03:01:41;;;;;;;15.63;14.02;;;22.80;99.90;;;;;;5071276;28;20717;-71
2023/08/15 03:04:30;;;;;;;15.18;13.40;;;22.70;99.90;;;;;;5075321;28;20288;-71
2023/08/15 03:07:24;;;;;;;16.15;13.30;;;22.70;99.90;;;;;;5090332;28;20224;-71
2023/08/15 03:10:13;;;;;;;14.77;13.00;;;22.60;99.90;;;;;;5071355;28;20224;-71
2023/08/15 03:13:02;;;;;;;17.13;14.13;;;22.70;99.90;;;;;;5084256;28;20215;-71
2023/08/15 03:15:56;;;;;;;15.68;13.50;;;22.50;99.90;;;;;;5071203;28;20313;-71
2023/08/15 03:18:48;;;;;;;21.08;13.95;;;22.30;99.90;;;;;;5074886;28;20678;-71
2023/08/15 03:21:37;;;;;;;18.67;13.90;;;22.30;99.90;;;;;;5076874;28;20334;-72
2023/08/15 03:24:30;;;;;;;14.73;13.18;;;22.30;99.90;;;;;;5075222;28;20238;-71
2023/08/15 03:27:20;;;;;;;15.20;13.60;;;22.30;99.90;;;;;;5067504;28;20553;-71
2023/08/15 03:30:10;;;;;;;15.10;13.50;;;22.20;99.90;;;;;;5092324;28;20231;-72
2023/08/15 03:32:59;;;;;;;13.77;12.38;;;22.40;99.90;;;;;;5071326;28;20224;-71
2023/08/15 03:35:50;;;;;;;14.85;13.27;;;22.40;99.90;;;;;;5079113;28;20267;-72
2023/08/15 03:38:41;;;;;;;14.93;13.05;;;22.40;99.90;;;;;;5090168;28;20579;-72
2023/08/15 03:41:31;;;;;;;14.05;12.65;;;22.30;99.90;;;;;;5092161;28;20239;-72
2023/08/15 03:44:20;;;;;;;16.38;13.05;;;22.40;99.90;;;;;;5093325;27;20217;-71
2023/08/15 03:47:09;;;;;;;18.17;13.35;;;22.30;99.90;;;;;;5068752;28;20219;-71
2023/08/15 03:49:59;;;;;;;15.13;13.30;;;22.40;99.90;;;;;;5081893;28;20624;-71
2023/08/15 03:52:48;;;;;;;14.98;12.40;;;22.40;99.90;;;;;;5062481;28;20738;-71
2023/08/15 03:55:37;;;;;;;14.57;13.07;;;22.40;99.90;;;;;;5066103;28;20227;-72
2023/08/15 03:58:27;;;;;;;14.32;12.80;;;22.40;99.90;;;;;;5069878;28;20314;-71
2023/08/15 04:01:17;;;;;;;14.80;13.40;;;22.50;99.90;;;;;;5069058;28;20228;-71
2023/08/15 04:04:07;;;;;;;14.50;12.80;;;22.40;99.90;;;;;;5082240;28;20238;-71
2023/08/15 04:06:56;;;;;;;14.98;13.13;;;22.40;99.90;;;;;;5063317;28;20250;-72
2023/08/15 04:09:44;;;;;;;14.85;13.30;;;22.40;99.90;;;;;;5075843;28;20639;-71
2023/08/15 04:12:35;;;;;;;14.25;12.85;;;22.40;99.90;;;;;;5069869;28;20282;-71
2023/08/15 04:15:25;;;;;;;15.00;13.30;;;22.40;99.90;;;;;;5080793;28;20229;-71
2023/08/15 04:18:14;;;;;;;17.67;12.82;;;22.60;99.90;;;;;;5066596;28;20245;-71
2023/08/15 04:21:04;;;;;;;14.57;13.10;;;22.60;99.90;;;;;;5072216;28;20295;-72
2023/08/15 04:23:53;;;;;;;15.23;13.65;;;22.70;99.90;;;;;;5064639;28;20220;-72
2023/08/15 04:26:42;;;;;;;16.98;12.60;;;22.70;99.90;;;;;;5095055;27;20464;-71
2023/08/15 04:29:30;;;;;;;15.65;13.65;;;22.70;99.90;;;;;;5068395;28;20349;-71
2023/08/15 04:32:21;;;;;;;14.43;12.65;;;22.80;99.90;;;;;;5068587;28;20223;-71
2023/08/15 04:35:10;;;;;;;14.05;12.63;;;22.80;99.90;;;;;;5092215;27;20219;-70
2023/08/15 04:37:59;;;;;;;13.85;12.50;;;22.80;99.90;;;;;;5072036;28;20219;-71
2023/08/15 04:40:48;;;;;;;14.75;13.15;;;22.90;99.90;;;;;;5067893;28;20728;-71
2023/08/15 04:43:37;;;;;;;14.88;12.48;;;23.00;99.90;;;;;;5093802;27;20607;-71
2023/08/15 04:46:25;;;;;;;20.17;12.90;;;23.00;99.90;;;;;;5067285;28;20937;-72
2023/08/15 04:49:16;;;;;;;17.73;12.93;;;23.10;99.90;;;;;;5092538;27;20228;-71
2023/08/15 04:52:05;;;;;;;20.80;13.23;;;23.20;99.90;;;;;;5063819;28;20735;-71
2023/08/15 04:54:55;;;;;;;13.13;11.82;;;23.20;99.90;;;;;;5070642;28;20219;-71
2023/08/15 04:57:44;;;;;;;13.75;11.40;;;23.30;99.90;;;;;;5071803;28;20223;-72
2023/08/15 05:00:34;;;;;;;13.27;11.85;;;23.50;99.90;;;;;;5077653;28;20218;-71
2023/08/15 05:03:24;;;;;;;13.93;11.35;;;23.50;99.90;;;;;;5068271;28;20677;-71
2023/08/15 05:06:14;;;;;;;13.70;11.80;;;23.60;99.90;;;;;;5067374;28;20655;-71
2023/08/15 05:09:04;;;;;;;15.30;11.02;;;23.70;99.90;;;;;;5065540;28;20212;-72
2023/08/15 05:11:53;;;;;;;15.68;10.88;;;23.80;99.90;;;;;;5064075;28;20212;-71
2023/08/15 05:14:43;;;;;;;12.68;10.90;;;23.90;99.90;;;;;;5075912;28;20591;-71
2023/08/15 05:17:32;;;;;;;12.68;11.48;;;24.00;99.90;;;;;;5075090;28;20309;-71
2023/08/15 05:20:23;;;;;;;13.45;12.05;;;24.10;99.90;;;;;;5063695;28;20219;-71
2023/08/15 05:23:13;;;;;;;16.13;12.00;;;24.10;99.90;;;;;;5076161;28;20223;-72
2023/08/15 05:26:02;;;;;;;18.60;11.68;;;24.20;99.90;;;;;;5097833;28;20720;-69
2023/08/15 05:28:52;;;;;;;14.30;11.45;;;24.30;99.90;;;;;;5089056;28;20219;-71
2023/08/15 05:31:46;;;;;;;12.70;11.23;;;24.40;99.90;;;;;;5081406;28;20223;-71
2023/08/15 05:34:35;;;;;;;14.55;11.38;;;24.60;99.90;;;;;;5082395;28;20271;-72
2023/08/15 05:37:24;;;;;;;14.75;10.60;;;24.60;99.90;;;;;;5090473;28;20401;-70
2023/08/15 05:40:16;;;;;;;14.20;11.40;;;24.70;99.90;;;;;;5086067;28;20219;-71
2023/08/15 05:43:05;;;;;;;12.32;11.13;;;24.80;99.90;;;;;;5092967;28;20223;-71
2023/08/15 05:45:54;;;;;;;12.60;11.40;;;25.00;99.90;;;;;;5075887;28;20229;-71
2023/08/15 05:48:42;;;;;;;12.73;11.40;;;25.30;99.90;;;;;;5075368;28;20308;-73
2023/08/15 05:51:31;;;;;;;17.65;11.65;;;25.80;99.90;;;;;;5080599;28;20246;-72
2023/08/15 05:54:21;;;;;;;12.20;10.57;;;26.00;99.90;;;;;;5086363;28;20224;-72
2023/08/15 05:57:11;;;;;;;14.48;11.18;;;25.70;99.90;;;;;;5065831;28;20220;-72
2023/08/15 06:00:00;;;;;;;12.52;10.93;;;25.70;99.90;;;;;;5069645;28;20318;-72
2023/08/15 06:03:00;;;;;;;12.25;10.95;;;25.70;99.90;;;;;;5083196;28;20215;-72
2023/08/15 06:05:52;;;;;;;11.93;10.80;;;25.80;99.90;;;;;;5087204;28;20682;-71
2023/08/15 06:08:43;;;;;;;12.27;11.07;;;26.00;99.90;;;;;;5075587;28;20222;-71
2023/08/15 06:11:32;;;;;;;14.00;10.32;;;26.80;99.90;;;;;;5066771;28;20220;-71
2023/08/15 06:14:22;;;;;;;12.52;11.15;;;26.90;99.90;;;;;;5080091;28;20239;-71
2023/08/15 06:17:13;;;;;;;11.50;10.25;;;26.80;99.90;;;;;;5083690;28;20230;-71
2023/08/15 06:20:03;;;;;;;14.05;10.20;;;26.50;99.90;;;;;;5065838;28;20223;-71
2023/08/15 06:22:51;;;;;;;11.88;10.18;;;26.50;99.90;;;;;;5085756;28;20227;-70
2023/08/15 06:25:43;;;;;;;12.43;10.95;;;26.40;99.90;;;;;;5063552;28;20218;-72
2023/08/15 06:28:32;;;;;;;13.88;10.32;;;26.40;99.90;;;;;;5080404;28;20598;-71
2023/08/15 06:31:22;;;;;;;13.52;10.43;;;26.40;99.90;;;;;;5086656;28;20220;-72
2023/08/15 06:34:11;;;;;;;11.60;10.48;;;26.60;99.90;;;;;;5070466;28;20239;-71
2023/08/15 06:37:00;;;;;;;11.95;10.70;;;26.80;99.90;;;;;;5077338;28;20327;-72
2023/08/15 06:39:49;;;;;;;13.90;10.70;;;26.70;99.90;;;;;;5082351;28;20234;-71
2023/08/15 06:42:38;;;;;;;12.98;10.90;;;26.70;99.90;;;;;;5082319;28;20290;-72
2023/08/15 06:45:27;;;;;;;13.35;10.35;;;26.70;99.90;;;;;;5070139;28;20233;-71
2023/08/15 06:48:17;;;;;;;17.20;10.63;;;27.10;99.90;;;;;;5078271;28;20607;-72
2023/08/15 06:51:06;;;;;;;12.40;11.10;;;27.90;99.90;;;;;;5096077;28;20230;-72
2023/08/15 06:53:55;;;;;;;12.80;11.00;;;27.80;99.90;;;;;;5083388;28;20219;-72
2023/08/15 06:56:45;;;;;;;12.77;11.32;;;27.40;99.90;;;;;;5083703;28;20234;-72
2023/08/15 06:59:35;;;;;;;11.90;10.70;;;27.20;99.90;;;;;;5083088;28;20223;-71
2023/08/15 07:02:25;;;;;;;13.00;10.68;;;27.10;99.90;;;;;;5068893;28;20273;-72
2023/08/15 07:05:15;;;;;;;13.70;10.05;;;27.20;99.90;;;;;;5069754;28;20247;-72
2023/08/15 07:08:05;;;;;;;11.40;10.30;;;27.30;99.90;;;;;;5082466;28;20261;-72
2023/08/15 07:10:56;;;;;;;14.95;10.02;;;27.30;99.90;;;;;;5068775;28;20243;-72
2023/08/15 07:13:44;;;;;;;11.45;10.20;;;27.40;99.90;;;;;;5082370;28;20223;-71
2023/08/15 07:16:34;;;;;;;11.57;10.52;;;27.70;99.90;;;;;;5076010;28;20832;-73
2023/08/15 07:19:23;;;;;;;11.30;10.20;;;27.70;99.90;;;;;;5070166;28;20222;-72
2023/08/15 07:22:17;;;;;;;12.63;10.45;;;27.80;99.90;;;;;;5074808;28;20239;-73
2023/08/15 07:25:07;;;;;;;12.20;9.90;;;28.00;99.90;;;;;;5077061;28;20215;-72
2023/08/15 07:27:56;;;;;;;12.30;10.13;;;28.00;99.90;;;;;;5072554;28;20294;-71
2023/08/15 07:30:46;;;;;;;14.00;9.57;;;28.20;99.90;;;;;;5071401;28;20215;-73
2023/08/15 07:33:34;;;;;;;11.88;10.60;;;28.40;99.90;;;;;;5059191;28;20232;-73
2023/08/15 07:36:23;;;;;;;11.25;9.75;;;28.40;99.90;;;;;;5081429;28;20226;-71
2023/08/15 07:39:14;;;;;;;10.27;9.00;;;28.60;99.90;;;;;;5075838;28;20234;-72
2023/08/15 07:42:03;;;;;;;11.77;9.52;;;28.80;99.90;;;;;;5081184;28;20245;-71
2023/08/15 07:44:51;;;;;;;11.23;9.05;;;28.70;99.90;;;;;;5081005;28;20219;-72
2023/08/15 07:47:41;;;;;;;10.35;9.23;;;29.00;99.90;;;;;;5070774;28;20235;-70
2023/08/15 07:50:30;;;;;;;10.38;9.35;;;29.30;99.90;;;;;;5079111;28;20231;-73
2023/08/15 07:53:18;;;;;;;10.13;9.15;;;29.50;99.90;;;;;;5074734;28;20235;-71
2023/08/15 07:56:09;;;;;;;9.95;8.65;;;29.60;99.90;;;;;;5096378;27;20234;-72
2023/08/15 07:58:58;;;;;;;10.20;8.93;;;29.90;99.90;;;;;;5072832;28;20586;-73
2023/08/15 08:01:47;;;;;;;11.25;8.60;;;30.20;99.90;;;;;;5085508;28;20386;-72
2023/08/15 08:04:37;;;;;;;9.27;8.40;;;30.50;99.90;;;;;;5094459;27;20226;-72
2023/08/15 08:07:27;;;;;;;9.65;8.38;;;30.70;99.90;;;;;;5067431;28;20243;-71
2023/08/15 08:10:16;;;;;;;8.40;7.60;;;30.80;99.90;;;;;;5064519;28;20725;-72
2023/08/15 08:13:09;;;;;;;8.65;7.55;;;31.10;99.90;;;;;;5078665;28;20272;-73
2023/08/15 08:15:58;;;;;;;8.63;7.20;;;31.40;99.90;;;;;;5063015;28;20591;-72
2023/08/15 08:18:46;;;;;;;9.45;7.22;;;31.80;99.90;;;;;;5068595;28;20219;-72
2023/08/15 08:21:36;;;;;;;8.57;6.93;;;31.80;99.90;;;;;;5087996;27;20602;-72
2023/08/15 08:24:25;;;;;;;10.63;6.72;;;31.90;99.90;;;;;;5079031;28;20325;-73
2023/08/15 08:27:14;;;;;;;8.70;6.45;;;32.30;99.90;;;;;;5061522;28;20246;-72
2023/08/15 08:30:06;;;;;;;7.28;6.65;;;32.90;99.90;;;;;;5060213;28;20227;-71
2023/08/15 08:32:55;;;;;;;9.43;6.90;;;33.20;99.90;;;;;;5067495;28;20225;-74
2023/08/15 08:35:44;;;;;;;8.32;6.50;;;33.30;99.90;;;;;;5071528;28;20215;-72
2023/08/15 08:38:33;;;;;;;7.25;6.40;;;33.50;99.90;;;;;;5083763;28;20223;-72
2023/08/15 08:41:24;;;;;;;8.15;6.28;;;34.00;99.90;;;;;;5066264;28;20238;-71
2023/08/15 08:44:13;;;;;;;7.78;5.80;;;34.20;99.90;;;;;;5065229;28;20235;-70
2023/08/15 08:47:05;;;;;;;8.63;5.55;;;34.70;99.90;;;;;;5084724;28;20295;-70
2023/08/15 08:49:58;;;;;;;8.85;5.10;;;35.00;99.90;;;;;;5076936;28;20550;-71
2023/08/15 08:52:49;;;;;;;5.90;4.72;;;35.10;96.20;;;;;;5065380;28;20625;-71
2023/08/15 08:55:40;;;;;;;7.47;5.00;;;35.30;99.90;;;;;;5075221;28;20353;-71
2023/08/15 08:58:31;;;;;;;7.65;5.55;;;35.50;95.20;;;;;;5081133;28;20231;-71
2023/08/15 09:01:22;;;;;;;5.68;5.10;;;35.70;94.80;;;;;;5086635;28;20229;-71
2023/08/15 09:04:12;;;;;;;6.43;5.60;;;36.00;99.70;;;;;;5086976;28;20693;-71
2023/08/15 09:07:01;;;;;;;8.95;5.10;;;35.80;94.60;;;;;;5073655;28;20219;-71
2023/08/15 09:09:50;;;;;;;5.93;5.05;;;36.20;95.50;;;;;;5079722;28;20222;-73
2023/08/15 09:12:40;;;;;;;9.00;5.15;;;36.00;94.50;;;;;;5080739;28;20899;-73
2023/08/15 09:15:29;;;;;;;10.10;5.13;;;35.90;92.70;;;;;;5066315;28;20230;-73
2023/08/15 09:18:23;;;;;;;8.13;5.22;;;36.20;92.60;;;;;;5067521;28;20223;-71
2023/08/15 09:21:14;;;;;;;7.18;4.60;;;36.60;96.60;;;;;;5079346;28;20612;-71
2023/08/15 09:24:05;;;;;;;6.93;4.47;;;36.70;93.10;;;;;;5081816;28;20622;-71
2023/08/15 09:26:54;;;;;;;6.13;4.80;;;37.20;90.00;;;;;;5068401;28;20214;-71
2023/08/15 09:29:43;;;;;;;9.63;4.35;;;37.90;91.80;;;;;;5081588;28;20653;-72
2023/08/15 09:32:32;;;;;;;5.80;4.65;;;38.10;89.10;;;;;;5068192;28;20728;-71
2023/08/15 09:35:21;;;;;;;5.10;4.30;;;38.10;90.50;;;;;;5088324;28;20353;-71
2023/08/15 09:38:13;;;;;;;4.88;4.38;;;38.60;91.30;;;;;;5093246;28;20256;-71
2023/08/15 09:41:03;;;;;;;8.95;4.45;;;39.20;90.40;;;;;;5068842;28;20288;-71
2023/08/15 09:43:53;;;;;;;6.28;4.07;;;39.30;84.10;;;;;;5085059;28;20229;-71
2023/08/15 09:46:45;;;;;;;6.68;4.30;;;39.30;83.00;;;;;;5078636;28;20218;-71
2023/08/15 09:49:34;;;;;;;5.97;3.80;;;39.50;80.40;;;;;;5083501;28;20223;-71
2023/08/15 09:52:25;;;;;;;4.82;4.13;;;40.10;78.20;;;;;;5077241;28;20218;-71
2023/08/15 09:55:16;;;;;;;8.30;4.47;;;40.30;79.30;;;;;;5061351;28;20222;-70
2023/08/15 09:58:05;;;;;;;5.88;3.92;;;41.00;78.20;;;;;;5070799;28;20223;-72
2023/08/15 10:00:55;;;;;;;4.68;3.55;;;41.80;74.30;;;;;;5088857;28;20226;-71
2023/08/15 10:03:45;;;;;;;7.28;3.92;;;42.40;75.70;;;;;;5086259;28;20759;-71
2023/08/15 10:06:35;;;;;;;5.60;3.53;;;42.50;70.30;;;;;;5079018;28;20231;-71
2023/08/15 10:09:25;;;;;;;6.38;3.08;;;43.00;63.00;;;;;;5080012;28;20815;-71
2023/08/15 10:12:16;;;;;;;4.47;3.33;;;43.10;66.50;;;;;;5089961;28;20375;-72
2023/08/15 10:15:06;;;;;;;5.20;3.55;;;43.40;65.00;;;;;;5085612;28;20834;-71
2023/08/15 10:17:57;;;;;;;9.38;6.03;;;43.60;62.30;;;;;;5089480;28;20537;-72
2023/08/15 10:20:51;;;;;;;5.10;4.00;;;43.40;63.50;;;;;;5079134;28;20222;-71
2023/08/15 10:23:41;;;;;;;4.40;4.00;;;43.90;62.60;;;;;;5078055;28;20226;-71
2023/08/15 10:26:30;;;;;;;5.50;4.25;;;44.10;62.50;;;;;;5081202;28;20219;-71
2023/08/15 10:29:21;;;;;;;4.28;3.88;;;44.60;63.70;;;;;;5079899;28;20227;-71
2023/08/15 10:32:24;;;;;;;5.50;3.70;;;45.20;59.50;;;;;;5059087;28;20227;-71
2023/08/15 10:35:13;;;;;;;4.28;3.40;;;45.10;57.90;;;;;;5076161;28;20227;-71
2023/08/15 10:38:14;;;;;;;7.93;3.47;;;45.40;56.30;;;;;;5074668;28;20224;-71
2023/08/15 10:41:05;;;;;;;4.80;3.28;;;45.90;55.50;;;;;;5074565;28;20582;-72
2023/08/15 10:43:55;;;;;;;5.63;3.15;;;46.00;57.10;;;;;;5069641;28;20257;-71
2023/08/15 10:46:46;;;;;;;4.30;3.50;;;46.20;51.60;;;;;;5062500;28;20231;-71
2023/08/15 10:49:35;;;;;;;3.92;3.10;;;47.00;51.30;;;;;;5103738;27;20219;-71
2023/08/15 10:52:25;;;;;;;5.03;2.85;;;46.90;51.00;;;;;;5079239;28;20561;-72
2023/08/15 10:55:15;;;;;;;3.97;2.88;;;47.70;50.20;;;;;;5078345;28;20219;-72
2023/08/15 10:58:06;;;;;;;4.43;2.72;;;47.30;49.40;;;;;;5065204;28;20235;-72
2023/08/15 11:00:56;;;;;;;3.78;2.78;;;47.90;46.30;;;;;;5083668;28;20221;-71
2023/08/15 11:03:47;;;;;;;4.22;2.50;;;47.80;47.30;;;;;;5085357;28;20223;-71
2023/08/15 11:06:42;;;;;;;2.70;2.50;;;47.60;48.60;;;;;;5070962;28;20643;-71
2023/08/15 11:09:30;;;;;;;4.53;2.80;;;47.10;46.30;;;;;;5073650;28;20733;-71
2023/08/15 11:12:24;;;;;;;5.07;2.50;;;48.00;48.00;;;;;;5077220;28;20713;-71
2023/08/15 11:15:13;;;;;;;4.82;2.78;;;48.60;45.50;;;;;;5081090;28;20326;-71
2023/08/15 11:18:02;;;;;;;3.25;2.67;;;48.60;45.90;;;;;;5064490;28;20710;-71
2023/08/15 11:20:54;;;;;;;3.15;2.85;;;48.30;44.80;;;;;;5092550;27;20590;-71
2023/08/15 11:23:43;;;;;;;4.18;2.65;;;48.30;45.40;;;;;;5078451;28;20215;-72
2023/08/15 11:26:37;;;;;;;3.97;2.90;;;49.20;45.00;;;;;;5074205;28;20231;-71
2023/08/15 11:29:26;;;;;;;3.63;2.63;;;50.30;44.60;;;;;;5081093;28;20227;-72
2023/08/15 11:32:17;;;;;;;3.05;2.75;;;50.60;44.90;;;;;;5079026;28;20229;-72
2023/08/15 11:35:07;;;;;;;3.00;2.80;;;50.30;44.90;;;;;;5081052;28;20639;-72
2023/08/15 11:38:00;;;;;;;6.35;2.70;;;51.30;45.20;;;;;;5078815;28;20234;-72
2023/08/15 11:40:50;;;;;;;2.83;2.55;;;51.00;40.10;;;;;;5065898;28;20223;-71
2023/08/15 11:43:39;;;;;;;3.10;2.70;;;51.60;41.50;;;;;;5082697;28;20219;-71
2023/08/15 11:46:28;;;;;;;4.75;2.80;;;52.40;40.40;;;;;;5073837;28;20253;-71
2023/08/15 11:49:35;;;;;;;6.75;3.90;;;52.80;41.60;;;;;;5065471;28;20984;-72
2023/08/15 11:52:42;;;;;;;7.82;3.10;;;53.80;41.40;;;;;;5080843;28;20710;-71
2023/08/15 11:55:36;;;;;;;3.35;3.05;;;54.40;40.30;;;;;;5069977;28;20222;-71
2023/08/15 11:58:26;;;;;;;3.80;2.63;;;55.10;38.00;;;;;;5067873;28;20215;-71
2023/08/15 12:01:15;;;;;;;3.28;2.97;;;55.50;38.70;;;;;;5084380;28;20223;-71
2023/08/15 12:04:06;;;;;;;3.95;2.75;;;55.60;38.90;;;;;;5066161;28;20222;-72
2023/08/15 12:06:58;;;;;;;3.00;2.38;;;56.20;40.00;;;;;;5074220;28;20223;-71
2023/08/15 12:09:50;;;;;;;2.05;1.90;;;56.40;34.60;;;;;;5079718;28;20223;-71
2023/08/15 12:12:41;;;;;;;3.97;2.40;;;55.80;33.80;;;;;;5078663;28;20806;-71
2023/08/15 12:15:30;;;;;;;2.83;2.25;;;55.10;34.30;;;;;;5069493;28;20222;-72
2023/08/15 12:18:19;;;;;;;3.55;3.20;;;54.90;33.30;;;;;;5069074;28;20767;-72
2023/08/15 12:21:09;;;;;;;5.07;1.95;;;54.10;36.90;;;;;;5071236;28;20233;-72
2023/08/15 12:24:01;;;;;;;4.30;2.20;;;53.40;33.60;;;;;;5080899;28;20762;-72
2023/08/15 12:26:50;;;;;;;5.15;2.42;;;53.80;33.70;;;;;;5071738;28;20662;-71
2023/08/15 12:29:40;;;;;;;5.35;2.58;;;47.90;36.70;;;;;;5082480;28;20227;-71
2023/08/15 12:32:49;;;;;;;4.53;2.40;;;44.00;38.10;;;;;;5062263;28;20226;-71
2023/08/15 12:35:38;;;;;;;5.50;2.45;;;41.90;40.50;;;;;;5080256;28;20238;-71
2023/08/15 12:38:27;;;;;;;2.90;2.60;;;40.60;43.00;;;;;;5081308;28;20282;-71
2023/08/15 12:41:16;;;;;;;6.10;3.20;;;39.20;45.50;;;;;;5080604;28;20222;-71
2023/08/15 12:44:05;;;;;;;5.43;2.70;;;38.40;49.20;;;;;;5067110;28;20222;-72
2023/08/15 12:46:57;;;;;;;7.88;3.30;;;38.20;47.60;;;;;;5079518;28;20230;-71
2023/08/15 12:49:47;;;;;;;4.40;3.40;;;37.70;49.70;;;;;;5096134;27;20246;-71
2023/08/15 12:52:36;;;;;;;10.15;5.40;;;37.10;50.80;;;;;;5061097;28;20229;-72
2023/08/15 12:55:24;;;;;;;7.75;5.72;;;36.50;52.40;;;;;;5068647;28;20231;-73
2023/08/15 12:58:13;;;;;;;3.83;3.20;;;36.50;51.80;;;;;;5081995;28;20215;-71
2023/08/15 13:01:02;;;;;;;4.00;2.80;;;36.00;52.20;;;;;;5077842;28;20233;-71
2023/08/15 13:03:52;;;;;;;6.70;3.17;;;36.20;50.70;;;;;;5066789;28;20257;-71
2023/08/15 13:06:42;;;;;;;3.85;2.45;;;36.00;50.90;;;;;;5074910;28;20211;-72
2023/08/15 13:09:30;;;;;;;5.05;3.33;;;35.90;50.90;;;;;;5067881;28;20325;-71
2023/08/15 13:12:20;;;;;;;3.97;3.53;;;35.70;51.30;;;;;;5087121;28;20582;-71
2023/08/15 13:15:11;;;;;;;5.70;4.15;;;35.50;53.00;;;;;;5075603;28;20226;-70
2023/08/15 13:18:00;;;;;;;3.95;2.75;;;35.30;53.50;;;;;;5072771;28;20347;-71
2023/08/15 13:20:53;;;;;;;3.72;2.60;;;35.50;48.40;;;;;;5056203;28;20227;-71
2023/08/15 13:23:42;;;;;;;3.00;2.38;;;35.40;49.10;;;;;;5072829;28;20954;-71
2023/08/15 13:26:34;;;;;;;4.70;2.55;;;35.20;49.80;;;;;;5082203;28;20243;-71
2023/08/15 13:29:23;;;;;;;4.10;2.33;;;35.20;49.90;;;;;;5090690;28;20222;-71
2023/08/15 13:32:12;;;;;;;5.03;2.65;;;35.00;49.00;;;;;;5077866;28;20219;-71
2023/08/15 13:35:02;;;;;;;4.18;2.88;;;34.80;50.80;;;;;;5079373;28;20222;-72
2023/08/15 13:37:52;;;;;;;5.13;2.97;;;34.70;50.50;;;;;;5078725;28;20222;-70
2023/08/15 13:40:43;;;;;;;3.97;2.60;;;34.70;49.60;;;;;;5071730;28;20283;-70
2023/08/15 13:43:34;;;;;;;3.63;2.13;;;34.70;49.20;;;;;;5075822;28;20233;-71
2023/08/15 13:46:23;;;;;;;4.70;3.33;;;34.70;47.60;;;;;;5074870;28;20234;-70
2023/08/15 13:49:11;;;;;;;3.60;2.67;;;34.60;51.20;;;;;;5078220;28;20234;-72
2023/08/15 13:52:01;;;;;;;2.80;2.50;;;34.30;50.50;;;;;;5074929;28;20226;-72
2023/08/15 13:54:52;;;;;;;5.15;3.13;;;34.30;50.50;;;;;;5082290;28;20234;-70
2023/08/15 13:57:43;;;;;;;3.08;2.88;;;34.10;53.10;;;;;;5069307;28;20227;-71
2023/08/15 14:00:34;;;;;;;5.68;2.95;;;34.00;55.20;;;;;;5082389;28;20738;-72
2023/08/15 14:03:24;;;;;;;5.75;3.00;;;34.10;51.60;;;;;;5088320;28;20246;-70
2023/08/15 14:06:13;;;;;;;4.18;2.70;;;34.00;53.10;;;;;;5081577;28;20230;-72
2023/08/15 14:09:02;;;;;;;7.20;3.20;;;34.00;52.60;;;;;;5077727;28;20952;-70
2023/08/15 14:11:54;;;;;;;3.30;3.00;;;33.50;55.10;;;;;;5079803;28;20796;-72
2023/08/15 14:14:43;;;;;;;5.03;2.90;;;33.50;55.80;;;;;;5068535;28;20915;-72
2023/08/15 14:17:32;;;;;;;3.15;2.67;;;33.70;53.40;;;;;;5080180;28;20234;-72
2023/08/15 14:20:21;;;;;;;3.80;3.10;;;33.70;55.10;;;;;;5082380;28;20234;-72
2023/08/15 14:23:10;;;;;;;3.92;3.53;;;33.50;55.00;;;;;;5090003;28;20226;-72
2023/08/15 14:26:00;;;;;;;6.60;4.15;;;33.50;57.30;;;;;;5075993;28;20215;-72
2023/08/15 14:28:50;;;;;;;3.88;3.55;;;33.30;57.70;;;;;;5074984;28;20935;-72
2023/08/15 14:31:39;;;;;;;3.97;3.22;;;33.10;56.30;;;;;;5079166;28;20806;-72
2023/08/15 14:34:28;;;;;;;3.42;3.13;;;33.20;55.80;;;;;;5074227;28;20325;-71